Time;durP1;ratioP1;P1;durP2;ratioP2;P2;SDS_P1;SDS_P2;PMS_P1;PMS_P2;Temp;Humidity;BMP_temperature;BMP_pressure;BME280_temperature;BME280_humidity;BME280_pressure;Samples;Min_cycle;Max_cycle;Signal;HPM_P1;HPM_P2
2023/01/13 00:02:00;;;;;;;53.37;27.50;;;;;;;41.47;35.33;101039.47;5100121;28;20800;-82
2023/01/13 00:04:26;;;;;;;43.20;24.83;;;;;;;41.50;35.40;101038.06;5092895;28;20207;-83
2023/01/13 00:06:52;;;;;;;53.43;28.40;;;;;;;41.56;34.86;101036.75;5064666;28;20198;-83
2023/01/13 00:09:18;;;;;;;69.33;31.10;;;;;;;41.47;35.40;101027.78;5092717;28;20413;-80
2023/01/13 00:11:44;;;;;;;44.33;28.50;;;;;;;41.52;35.43;101030.34;5083060;28;20468;-82
2023/01/13 00:14:10;;;;;;;57.83;26.97;;;;;;;41.62;35.42;101027.25;5078189;28;20421;-78
2023/01/13 00:16:36;;;;;;;62.63;29.97;;;;;;;41.61;35.14;101023.72;5098613;28;20431;-79
2023/01/13 00:19:02;;;;;;;47.27;30.00;;;;;;;41.55;35.16;101021.50;5091318;28;20417;-79
2023/01/13 00:21:28;;;;;;;68.20;29.93;;;;;;;41.67;35.31;101021.59;5074834;28;20610;-77
2023/01/13 00:23:54;;;;;;;76.47;33.20;;;;;;;41.77;35.33;101017.75;5104649;28;20660;-78
2023/01/13 00:26:25;;;;;;;57.43;31.70;;;;;;;41.63;35.46;101009.78;5082429;28;20416;-75
2023/01/13 00:28:56;;;;;;;63.00;31.47;;;;;;;41.37;35.68;101004.44;5071420;28;20418;-78
2023/01/13 00:31:23;;;;;;;50.07;30.40;;;;;;;41.42;35.62;101006.19;5082517;28;20799;-77
2023/01/13 00:33:49;;;;;;;55.23;31.53;;;;;;;41.53;35.61;101001.97;5072619;28;20475;-78
2023/01/13 00:36:18;;;;;;;59.97;27.83;;;;;;;41.57;35.20;101006.44;5067341;28;20421;-76
2023/01/13 00:38:46;;;;;;;57.73;30.23;;;;;;;41.64;35.23;101005.13;5091160;28;20429;-75
2023/01/13 00:41:18;;;;;;;56.90;30.70;;;;;;;41.61;35.31;101001.13;5078036;28;20510;-76
2023/01/13 00:43:45;;;;;;;53.90;28.60;;;;;;;41.67;35.13;100997.09;5088195;28;20429;-73
2023/01/13 00:46:15;;;;;;;58.77;29.10;;;;;;;41.52;35.31;101003.09;5067782;28;20950;-74
2023/01/13 00:48:41;;;;;;;53.93;28.33;;;;;;;41.25;35.89;100991.50;5076476;28;20417;-74
2023/01/13 00:51:08;;;;;;;53.75;29.20;;;;;;;41.42;35.53;101000.75;5091491;28;20424;-75
2023/01/13 00:53:42;;;;;;;55.00;32.33;;;;;;;41.07;36.22;100998.16;5082022;28;20184;-76
2023/01/13 00:56:14;;;;;;;59.40;34.30;;;;;;;41.13;36.25;100988.69;5072066;28;21028;-78
2023/01/13 00:58:40;;;;;;;53.10;35.47;;;;;;;41.21;36.24;100993.28;5090951;28;20954;-73
2023/01/13 01:01:10;;;;;;;71.03;43.87;;;;;;;40.95;36.43;100995.28;5090585;28;20460;-73
2023/01/13 01:03:36;;;;;;;100.67;62.57;;;;;;;40.67;36.60;100998.34;5091657;28;20474;-73
2023/01/13 01:06:14;;;;;;;94.80;57.57;;;;;;;40.76;36.77;100996.44;5092021;28;20822;-73
2023/01/13 01:08:40;;;;;;;88.30;55.50;;;;;;;40.44;37.13;100988.72;5090284;28;20511;-75
2023/01/13 01:11:09;;;;;;;91.93;55.00;;;;;;;40.58;36.85;100985.88;5090482;28;20912;-73
2023/01/13 01:13:36;;;;;;;77.10;50.53;;;;;;;40.64;36.50;100982.69;5090464;28;21017;-75
2023/01/13 01:16:07;;;;;;;76.57;47.60;;;;;;;40.73;36.19;100979.94;5089628;28;20424;-76
2023/01/13 01:18:38;;;;;;;82.37;50.50;;;;;;;40.73;36.47;100980.75;5074218;28;20424;-78
2023/01/13 01:21:05;;;;;;;75.40;49.60;;;;;;;40.79;36.31;100974.00;5078542;28;20492;-78
2023/01/13 01:23:33;;;;;;;110.97;52.70;;;;;;;40.80;36.10;100974.81;5090612;28;20423;-77
2023/01/13 01:26:05;;;;;;;98.07;54.27;;;;;;;40.69;36.14;100973.53;5091831;28;20424;-79
2023/01/13 01:28:31;;;;;;;94.27;52.10;;;;;;;40.83;35.84;100966.00;5090387;28;20417;-79
2023/01/13 01:30:58;;;;;;;91.30;52.40;;;;;;;40.76;36.28;100969.22;5107678;28;20435;-77
2023/01/13 01:33:25;;;;;;;92.37;51.87;;;;;;;40.72;36.11;100965.53;5088881;28;20488;-77
2023/01/13 01:35:52;;;;;;;93.03;51.40;;;;;;;40.65;35.90;100959.81;5063589;28;20432;-78
2023/01/13 01:38:20;;;;;;;81.47;52.67;;;;;;;40.54;35.94;100945.75;5073846;28;20428;-76
2023/01/13 01:40:46;;;;;;;80.97;49.43;;;;;;;40.54;36.13;100951.19;5080423;28;20428;-78
2023/01/13 01:46:02;;;;;;;73.77;48.10;;;;;;;40.63;36.29;100947.63;5091903;28;20939;-80
2023/01/13 01:48:32;;;;;;;87.70;51.20;;;;;;;40.61;36.40;100939.00;5089382;28;20486;-76
2023/01/13 01:50:59;;;;;;;86.17;46.40;;;;;;;40.07;36.58;100939.34;5070695;28;20429;-79
2023/01/13 01:53:28;;;;;;;87.37;50.90;;;;;;;40.26;36.12;100925.44;5100503;28;21011;-76
2023/01/13 01:55:56;;;;;;;73.47;44.60;;;;;;;40.20;36.83;100927.50;5054140;28;20437;-78
2023/01/13 01:58:30;;;;;;;71.80;41.90;;;;;;;40.25;36.68;100926.56;5053840;28;20960;-78
2023/01/13 02:00:57;;;;;;;81.23;42.47;;;;;;;40.33;36.65;100916.78;5086868;28;20464;-76
2023/01/13 02:03:24;;;;;;;68.43;46.10;;;;;;;40.22;36.31;100911.69;5090473;28;20425;-77
2023/01/13 02:05:50;;;;;;;76.93;47.07;;;;;;;40.39;35.91;100910.88;5073153;28;20527;-72
2023/01/13 02:08:17;;;;;;;62.67;42.20;;;;;;;40.33;36.08;100905.91;5057146;28;20881;-73
2023/01/13 02:10:47;;;;;;;82.73;43.57;;;;;;;40.26;35.98;100900.97;5088314;28;20972;-72
2023/01/13 02:13:13;;;;;;;76.23;45.87;;;;;;;40.25;36.79;100905.59;5089932;28;20424;-73
2023/01/13 02:16:14;;;;;;;67.77;45.90;;;;;;;40.43;36.18;100902.88;5056387;28;20785;-72
2023/01/13 02:19:05;;;;;;;56.80;42.17;;;;;;;40.56;35.93;100893.75;5058830;28;20441;-71
2023/01/13 02:22:03;;;;;;;67.33;42.33;;;;;;;40.45;36.01;100887.81;5095541;28;20510;-78
2023/01/13 02:24:55;;;;;;;77.60;45.00;;;;;;;40.39;35.80;100888.31;5071137;28;20487;-77
2023/01/13 02:27:56;;;;;;;67.80;45.73;;;;;;;40.45;36.31;100892.47;5110188;28;20436;-77
2023/01/13 02:33:59;;;;;;;66.87;38.40;;;;;;;40.52;35.98;100877.31;5079635;28;20854;-77
2023/01/13 02:36:48;;;;;;;66.43;41.60;;;;;;;40.32;36.21;100882.56;5070940;28;20467;-79
2023/01/13 02:39:20;;;;;;;75.07;42.77;;;;;;;40.41;36.01;100877.94;5072643;28;20451;-78
2023/01/13 02:45:15;;;;;;;60.87;40.80;;;;;;;40.54;36.19;100875.06;5091173;28;20420;-76
2023/01/13 02:47:46;;;;;;;69.27;44.73;;;;;;;40.39;36.29;100878.28;5109821;28;20428;-77
2023/01/13 02:50:28;;;;;;;72.77;41.40;;;;;;;40.50;35.90;100870.56;5093495;28;20435;-77
2023/01/13 02:53:02;;;;;;;83.13;45.60;;;;;;;40.26;36.24;100877.31;5080899;28;20443;-78
2023/01/13 02:55:33;;;;;;;62.83;44.50;;;;;;;40.28;36.22;100883.22;5093321;28;20515;-76
2023/01/13 02:58:02;;;;;;;63.40;42.90;;;;;;;40.44;36.14;100875.34;5082702;28;20429;-76
2023/01/13 03:00:29;;;;;;;80.77;44.50;;;;;;;40.55;35.79;100875.84;5076467;28;20429;-77
2023/01/13 03:02:55;;;;;;;67.43;40.50;;;;;;;40.21;36.34;100882.94;5059622;28;20467;-76
2023/01/13 03:05:22;;;;;;;59.33;42.07;;;;;;;40.20;36.23;100884.03;5090498;28;20432;-77
2023/01/13 03:07:55;;;;;;;76.07;43.53;;;;;;;40.20;36.29;100878.59;5073268;28;20450;-78
2023/01/13 03:10:36;;;;;;;75.27;42.23;;;;;;;40.16;36.42;100880.38;5074411;28;20442;-77
2023/01/13 03:13:12;;;;;;;79.37;42.93;;;;;;;40.00;36.66;100887.38;5103356;28;20421;-77
2023/01/13 03:16:02;;;;;;;64.05;44.72;;;;;;;40.12;36.86;100873.97;5090087;28;20425;-77
2023/01/13 03:18:48;;;;;;;84.17;43.70;;;;;;;40.28;36.85;100880.50;5094511;28;20186;-76
2023/01/13 03:21:38;;;;;;;65.73;37.70;;;;;;;40.32;36.66;100880.66;5092778;28;20555;-77
2023/01/13 03:24:17;;;;;;;62.60;39.67;;;;;;;40.22;36.79;100881.00;5089451;28;20441;-76
2023/01/13 03:26:51;;;;;;;82.00;39.50;;;;;;;40.25;36.74;100874.91;5101339;28;20519;-79
2023/01/13 03:29:44;;;;;;;84.77;44.20;;;;;;;40.23;36.73;100880.69;5103228;28;20202;-78
2023/01/13 03:32:16;;;;;;;70.03;44.77;;;;;;;40.31;36.21;100879.06;5090795;28;20469;-78
2023/01/13 03:34:47;;;;;;;64.13;43.87;;;;;;;40.33;36.51;100878.72;5079512;28;20426;-79
2023/01/13 03:37:15;;;;;;;61.70;41.23;;;;;;;40.29;36.73;100876.66;5072465;28;20441;-77
2023/01/13 03:39:49;;;;;;;69.73;44.97;;;;;;;40.32;36.64;100871.69;5073645;28;20410;-78
2023/01/13 03:42:22;;;;;;;75.47;45.17;;;;;;;40.04;36.72;100872.06;5079365;28;20462;-82
2023/01/13 03:45:09;;;;;;;73.83;42.73;;;;;;;40.07;36.94;100873.34;5090078;28;20444;-82
2023/01/13 03:47:54;;;;;;;57.47;42.53;;;;;;;40.14;36.62;100871.72;5092502;28;20425;-83
2023/01/13 03:50:27;;;;;;;65.32;39.25;;;;;;;39.84;37.02;100873.50;5089313;28;20926;-83
2023/01/13 03:53:03;;;;;;;70.40;41.33;;;;;;;39.92;37.11;100872.69;5102370;28;20202;-83
2023/01/13 03:55:35;;;;;;;80.13;41.97;;;;;;;39.91;37.14;100881.94;5108819;28;20432;-78
2023/01/13 03:58:27;;;;;;;69.80;43.00;;;;;;;39.94;37.24;100873.16;5075007;28;20428;-79
2023/01/13 04:01:03;;;;;;;79.93;45.03;;;;;;;40.06;36.58;100874.47;5091601;28;20425;-78
2023/01/13 04:03:32;;;;;;;70.43;42.10;;;;;;;39.93;36.74;100882.41;5079136;22;20482;-77
2023/01/13 04:06:16;;;;;;;52.17;40.00;;;;;;;39.97;36.75;100880.66;5030660;28;20444;-78
2023/01/13 04:08:53;;;;;;;69.93;41.20;;;;;;;40.08;36.99;100880.38;5022160;28;20432;-77
2023/01/13 04:11:28;;;;;;;66.77;42.67;;;;;;;39.85;37.39;100885.16;5030673;28;20431;-77
2023/01/13 04:13:56;;;;;;;69.17;45.10;;;;;;;39.90;37.01;100884.97;5028827;28;20460;-77
2023/01/13 04:16:22;;;;;;;72.43;40.77;;;;;;;40.05;36.72;100884.53;5027999;28;20458;-77
2023/01/13 04:18:49;;;;;;;64.13;43.23;;;;;;;40.06;36.79;100885.31;5029103;28;20432;-77
2023/01/13 04:21:15;;;;;;;85.40;47.87;;;;;;;40.08;36.80;100883.88;5037191;28;20476;-76
2023/01/13 04:23:41;;;;;;;72.63;40.83;;;;;;;39.64;37.50;100880.31;5025816;28;21089;-75
2023/01/13 04:26:07;;;;;;;70.43;42.90;;;;;;;39.51;37.75;100881.22;5012096;28;20432;-72
2023/01/13 04:28:33;;;;;;;74.03;43.40;;;;;;;39.38;38.11;100880.25;5028382;28;20428;-72
2023/01/13 04:31:00;;;;;;;92.03;49.57;;;;;;;39.65;37.69;100886.53;5012922;28;20312;-77
2023/01/13 04:33:25;;;;;;;62.20;41.30;;;;;;;39.54;37.50;100887.97;5011391;28;20467;-71
2023/01/13 04:35:51;;;;;;;66.73;39.40;;;;;;;39.60;37.57;100883.97;5011958;28;20526;-73
2023/01/13 04:38:20;;;;;;;64.93;45.03;;;;;;;39.73;37.28;100883.84;5027975;28;20532;-72
2023/01/13 04:40:46;;;;;;;75.70;46.93;;;;;;;39.80;37.44;100882.59;5011581;28;20515;-73
2023/01/13 04:43:14;;;;;;;69.93;46.60;;;;;;;39.89;37.06;100886.09;5011609;28;20432;-77
2023/01/13 04:45:41;;;;;;;75.63;46.07;;;;;;;39.95;37.09;100885.59;5011702;28;20425;-76
2023/01/13 04:48:07;;;;;;;60.63;43.23;;;;;;;39.95;36.98;100882.09;5013457;28;20427;-72
2023/01/13 04:50:33;;;;;;;72.30;44.57;;;;;;;40.03;37.06;100890.25;5028159;28;20425;-73
2023/01/13 04:53:00;;;;;;;70.03;43.13;;;;;;;40.12;36.88;100893.00;5011031;28;20420;-72
2023/01/13 04:55:26;;;;;;;76.83;44.23;;;;;;;39.97;36.43;100888.03;5012029;28;20502;-77
2023/01/13 04:57:52;;;;;;;58.43;40.67;;;;;;;39.79;37.05;100889.94;5017443;28;20436;-76
2023/01/13 05:00:22;;;;;;;81.53;43.40;;;;;;;39.63;37.14;100889.59;4999976;28;20503;-78
2023/01/13 05:02:50;;;;;;;68.37;43.93;;;;;;;39.81;37.18;100884.97;5016496;28;20563;-77
2023/01/13 05:05:16;;;;;;;63.10;41.97;;;;;;;39.82;37.17;100883.84;5023137;28;20531;-78
2023/01/13 05:07:42;;;;;;;71.90;39.87;;;;;;;39.93;36.84;100884.34;5011025;28;20448;-79
2023/01/13 05:10:09;;;;;;;75.27;46.23;;;;;;;39.92;36.92;100890.91;5011205;28;20511;-76
2023/01/13 05:18:04;;;;;;;69.20;43.87;;;;;;;39.58;38.00;100903.28;5011579;28;20434;-73
2023/01/13 05:20:30;;;;;;;81.37;44.53;;;;;;;39.73;37.42;100902.88;5016138;28;20963;-73
2023/01/13 05:25:42;;;;;;;86.43;43.13;;;;;;;39.47;37.97;100918.25;5011381;28;20502;-72
2023/01/13 05:28:08;;;;;;;69.40;44.60;;;;;;;39.54;37.88;100913.19;5010378;28;20578;-78
2023/01/13 05:30:44;;;;;;;71.90;40.83;;;;;;;39.54;37.68;100915.91;5010440;28;20877;-76
2023/01/13 05:33:13;;;;;;;76.57;44.93;;;;;;;39.39;38.19;100922.56;4990883;28;20442;-72
2023/01/13 05:35:42;;;;;;;78.23;44.77;;;;;;;39.38;37.69;100929.09;5010686;28;20439;-74
2023/01/13 05:38:08;;;;;;;90.47;44.23;;;;;;;39.15;38.29;100922.91;5012031;28;20452;-72
2023/01/13 05:43:23;;;;;;;78.17;46.17;;;;;;;39.24;38.13;100931.13;5011108;28;20411;-79
2023/01/13 05:45:49;;;;;;;64.13;43.53;;;;;;;39.15;38.48;100931.06;5018935;28;20820;-79
2023/01/13 05:48:16;;;;;;;75.90;44.13;;;;;;;38.92;38.65;100940.38;5012026;28;20941;-80
2023/01/13 05:50:43;;;;;;;53.10;39.87;;;;;;;39.02;38.49;100948.22;5012208;28;20432;-80
2023/01/13 05:53:09;;;;;;;68.63;38.67;;;;;;;38.51;39.24;100952.22;5026899;28;20428;-76
2023/01/13 05:55:38;;;;;;;57.87;39.03;;;;;;;38.27;39.64;100954.41;5013861;28;20439;-77
2023/01/13 05:58:07;;;;;;;64.07;40.80;;;;;;;38.23;40.31;100965.00;5013990;28;20433;-81
2023/01/13 06:00:33;;;;;;;69.43;39.97;;;;;;;37.95;40.19;100953.47;5030424;28;20948;-82
2023/01/13 06:02:59;;;;;;;74.10;39.67;;;;;;;38.10;40.18;100963.94;5013197;28;20482;-78
2023/01/13 06:05:25;;;;;;;74.33;41.10;;;;;;;38.24;40.40;100963.91;5029438;28;20432;-75
2023/01/13 06:07:51;;;;;;;70.90;41.33;;;;;;;38.55;39.80;100968.63;5013285;28;20802;-77
2023/01/13 06:10:17;;;;;;;67.90;43.00;;;;;;;38.89;39.04;100974.34;5012928;28;20194;-75
2023/01/13 06:12:43;;;;;;;79.00;42.80;;;;;;;38.83;39.18;100969.34;4999079;28;20423;-71
2023/01/13 06:15:09;;;;;;;75.03;45.77;;;;;;;39.15;38.65;100976.38;5015610;28;20440;-71
2023/01/13 06:17:35;;;;;;;68.77;44.03;;;;;;;39.19;38.61;100974.69;5017233;28;20436;-71
2023/01/13 06:20:01;;;;;;;77.13;48.47;;;;;;;39.20;38.36;100984.41;5015364;28;20428;-76
2023/01/13 06:22:34;;;;;;;77.37;45.30;;;;;;;39.31;38.12;100976.81;5019798;28;20486;-71
2023/01/13 06:25:00;;;;;;;69.43;48.53;;;;;;;39.41;38.14;100990.09;5005204;28;20186;-71
2023/01/13 06:27:29;;;;;;;66.20;46.00;;;;;;;39.39;37.70;100989.59;5008412;28;20208;-72
2023/01/13 06:29:58;;;;;;;63.30;43.47;;;;;;;38.89;38.71;101000.66;5013703;28;20452;-73
2023/01/13 06:32:30;;;;;;;69.77;46.40;;;;;;;38.83;38.80;101005.41;5026606;28;20448;-73
2023/01/13 06:35:02;;;;;;;76.90;47.10;;;;;;;38.84;38.79;101011.63;4999643;28;20477;-78
2023/01/13 06:37:30;;;;;;;72.60;44.00;;;;;;;38.73;39.23;101010.25;5024139;28;20421;-72
2023/01/13 06:40:00;;;;;;;74.23;47.27;;;;;;;38.83;39.35;101013.53;5010364;28;20425;-72
2023/01/13 06:45:18;;;;;;;73.20;48.20;;;;;;;38.63;39.61;101014.81;5010689;28;20400;-73
2023/01/13 06:47:44;;;;;;;87.90;46.73;;;;;;;38.92;39.02;101016.31;4995260;28;20436;-74
2023/01/13 06:50:10;;;;;;;65.60;42.90;;;;;;;39.00;39.22;101022.91;5011155;28;20967;-76
2023/01/13 06:52:36;;;;;;;79.33;47.73;;;;;;;38.99;38.96;101021.31;5023619;28;20424;-73
2023/01/13 06:55:03;;;;;;;83.90;49.03;;;;;;;39.09;38.72;101031.88;5013416;28;20412;-83
2023/01/13 06:57:29;;;;;;;84.13;50.27;;;;;;;38.95;39.02;101032.75;5018137;28;20448;-75
2023/01/13 06:59:55;;;;;;;84.23;50.77;;;;;;;38.76;39.83;101032.16;5041400;22;20489;-78
2023/01/13 07:02:21;;;;;;;78.07;52.40;;;;;;;38.95;39.01;101034.69;4964694;28;20490;-78
2023/01/13 07:04:47;;;;;;;103.63;49.90;;;;;;;39.03;38.93;101035.84;4968869;28;20974;-78
2023/01/13 07:07:13;;;;;;;80.60;50.10;;;;;;;39.24;38.63;101039.69;4985229;28;20198;-79
2023/01/13 07:09:39;;;;;;;115.23;48.73;;;;;;;38.99;38.90;101043.81;4982824;28;20450;-79
2023/01/13 07:12:05;;;;;;;81.23;49.30;;;;;;;38.96;38.83;101047.13;4987616;28;20423;-79
2023/01/13 07:17:23;;;;;;;66.37;46.00;;;;;;;39.22;38.78;101063.59;4963923;28;20406;-80
2023/01/13 07:19:53;;;;;;;90.93;45.10;;;;;;;39.31;38.84;101058.22;4976130;28;21047;-74
2023/01/13 07:22:19;;;;;;;83.00;49.37;;;;;;;39.38;38.56;101062.09;4982566;28;20473;-81
2023/01/13 07:24:45;;;;;;;84.53;48.27;;;;;;;39.18;39.20;101074.28;4959922;28;20423;-82
2023/01/13 07:27:11;;;;;;;95.23;49.07;;;;;;;38.61;40.00;101082.09;4970475;28;20433;-77
2023/01/13 07:29:37;;;;;;;95.47;47.10;;;;;;;38.70;39.62;101090.28;4970371;28;20225;-71
2023/01/13 07:32:04;;;;;;;104.27;51.47;;;;;;;38.68;39.95;101090.59;4983857;28;20187;-77
2023/01/13 07:34:30;;;;;;;81.33;47.23;;;;;;;38.73;39.91;101097.03;4963806;28;20966;-79
2023/01/13 07:36:56;;;;;;;98.40;48.97;;;;;;;38.81;39.84;101104.44;4968478;28;20486;-79
2023/01/13 07:39:22;;;;;;;87.13;51.83;;;;;;;38.60;40.33;101107.56;4969073;28;20198;-79
2023/01/13 07:44:32;;;;;;;87.83;54.10;;;;;;;38.75;39.80;101116.53;4967347;28;20248;-73
2023/01/13 07:46:58;;;;;;;111.00;57.60;;;;;;;38.43;40.56;101113.66;4982271;28;20818;-72
2023/01/13 07:49:24;;;;;;;125.13;55.00;;;;;;;38.82;40.21;101122.31;4967003;28;20430;-72
2023/01/13 07:51:50;;;;;;;92.10;57.07;;;;;;;39.17;39.57;101124.22;4962130;28;20217;-72
2023/01/13 07:54:15;;;;;;;95.60;58.43;;;;;;;39.53;38.72;101123.31;4972145;28;20427;-77
2023/01/13 07:56:47;;;;;;;100.13;52.80;;;;;;;39.10;39.14;101126.56;4973338;28;20269;-77
2023/01/13 07:59:13;;;;;;;92.00;55.60;;;;;;;39.30;39.13;101124.47;4963109;28;20211;-78
2023/01/13 08:01:38;;;;;;;88.40;50.97;;;;;;;39.60;38.57;101122.91;4971340;28;20642;-79
2023/01/13 08:04:04;;;;;;;95.43;50.20;;;;;;;39.46;38.58;101128.38;4973460;28;20533;-81
2023/01/13 08:06:30;;;;;;;81.50;50.17;;;;;;;39.43;38.43;101129.03;4973097;28;20582;-77
2023/01/13 08:08:57;;;;;;;91.40;53.20;;;;;;;39.43;38.56;101134.44;4973245;28;20513;-73
2023/01/13 08:11:23;;;;;;;80.43;45.83;;;;;;;39.56;38.32;101133.56;4972882;28;20429;-72
2023/01/13 08:13:54;;;;;;;87.60;50.17;;;;;;;39.61;38.24;101138.91;4972985;28;20200;-76
2023/01/13 08:16:19;;;;;;;81.07;50.67;;;;;;;39.35;38.53;101133.28;4954795;28;20423;-73
2023/01/13 08:18:45;;;;;;;94.73;52.47;;;;;;;39.15;39.21;101131.03;4947503;28;20984;-76
2023/01/13 08:21:13;;;;;;;108.20;54.33;;;;;;;39.10;38.83;101142.81;4972480;28;20250;-77
2023/01/13 08:23:43;;;;;;;103.97;51.47;;;;;;;39.21;38.91;101138.75;4944568;28;20450;-77
2023/01/13 08:26:13;;;;;;;101.37;49.13;;;;;;;39.14;38.82;101149.22;4954446;28;20434;-77
2023/01/13 08:28:41;;;;;;;92.13;49.70;;;;;;;39.20;38.69;101144.50;4936336;28;20441;-77
2023/01/13 08:31:11;;;;;;;90.30;52.03;;;;;;;39.40;38.51;101143.19;4972720;28;20546;-73
2023/01/13 08:33:37;;;;;;;85.60;49.40;;;;;;;39.57;38.41;101142.50;4969698;28;20491;-73
2023/01/13 08:36:08;;;;;;;115.10;53.50;;;;;;;39.49;37.99;101142.16;4965466;28;20930;-73
2023/01/13 08:38:35;;;;;;;111.43;49.70;;;;;;;39.43;38.46;101134.44;4956458;28;20435;-77
2023/01/13 08:41:07;;;;;;;89.43;53.20;;;;;;;39.35;38.57;101135.19;4945858;28;20430;-73
2023/01/13 08:43:33;;;;;;;103.77;52.80;;;;;;;39.34;38.40;101137.09;4972190;28;20438;-73
2023/01/13 08:46:03;;;;;;;98.50;51.27;;;;;;;39.79;37.93;101133.56;4974033;28;20425;-76
2023/01/13 08:48:29;;;;;;;101.07;54.17;;;;;;;39.78;37.60;101131.94;4983053;23;20293;-73
2023/01/13 08:51:02;;;;;;;80.23;53.33;;;;;;;39.79;37.60;101125.41;4972108;28;20478;-74
2023/01/13 08:53:28;;;;;;;79.07;46.77;;;;;;;39.70;37.88;101115.28;4973393;28;20431;-82
2023/01/13 08:55:53;;;;;;;80.37;45.47;;;;;;;39.77;37.68;101117.56;4969067;28;20442;-83
2023/01/13 08:58:19;;;;;;;91.97;51.40;;;;;;;39.77;37.95;101123.00;4972168;28;20437;-84
2023/01/13 09:00:45;;;;;;;117.03;52.77;;;;;;;39.44;38.38;101125.19;4969223;28;20431;-83
2023/01/13 09:03:11;;;;;;;92.97;51.40;;;;;;;38.99;38.61;101133.31;4972087;28;20727;-85
2023/01/13 09:05:37;;;;;;;78.13;51.53;;;;;;;39.03;38.52;101118.00;4972530;28;20189;-84
2023/01/13 09:08:03;;;;;;;82.07;50.50;;;;;;;39.34;38.44;101128.16;4972103;28;20555;-85
2023/01/13 09:10:29;;;;;;;76.13;49.07;;;;;;;39.54;37.73;101124.16;4972504;28;20868;-83
2023/01/13 09:13:14;;;;;;;103.17;52.10;;;;;;;39.85;37.77;101129.59;4972529;28;20174;-78
2023/01/13 09:15:43;;;;;;;94.90;47.67;;;;;;;39.83;37.48;101124.44;4970106;28;20509;-79
2023/01/13 09:18:09;;;;;;;80.93;43.10;;;;;;;39.78;37.60;101118.34;4972154;28;20456;-85
2023/01/13 09:20:35;;;;;;;87.70;44.90;;;;;;;39.84;37.43;101123.38;4971464;28;20423;-84
2023/01/13 09:23:01;;;;;;;79.10;48.50;;;;;;;40.13;36.73;101119.31;4971958;28;20458;-84
2023/01/13 09:25:27;;;;;;;82.43;48.73;;;;;;;39.91;37.36;101125.63;4972660;28;20422;-83
2023/01/13 09:27:53;;;;;;;101.03;52.07;;;;;;;39.99;37.16;101120.22;4971876;28;20808;-84
2023/01/13 09:30:19;;;;;;;92.87;48.13;;;;;;;40.10;37.08;101112.59;4971556;28;20667;-83
2023/01/13 09:32:45;;;;;;;76.67;50.20;;;;;;;39.69;37.88;101119.13;4973151;28;20418;-81
2023/01/13 09:35:11;;;;;;;76.20;50.33;;;;;;;39.72;37.58;101117.72;4987665;28;20438;-81
2023/01/13 09:37:39;;;;;;;67.43;41.77;;;;;;;39.99;36.70;101119.41;4971804;28;20430;-80
2023/01/13 09:40:23;;;;;;;111.23;53.57;;;;;;;40.18;36.44;101125.41;4971608;28;20853;-81
2023/01/13 09:45:43;;;;;;;68.47;44.03;;;;;;;40.41;36.57;101114.44;4954242;28;20437;-81
2023/01/13 09:48:21;;;;;;;79.40;45.20;;;;;;;39.71;37.68;101119.59;4949249;28;20475;-81
2023/01/13 09:53:54;;;;;;;79.23;51.50;;;;;;;39.60;37.85;101112.88;5038898;28;20475;-80
2023/01/13 09:56:24;;;;;;;97.70;54.13;;;;;;;39.98;36.82;101101.50;5037400;28;20435;-81
2023/01/13 09:58:51;;;;;;;98.77;46.63;;;;;;;40.01;37.22;101098.94;5046993;28;20454;-81
2023/01/13 10:01:31;;;;;;;81.10;46.10;;;;;;;40.03;37.20;101098.66;5047083;28;20845;-81
2023/01/13 10:04:09;;;;;;;71.23;42.27;;;;;;;40.02;36.44;101088.88;5047368;28;20187;-81
2023/01/13 10:06:41;;;;;;;70.83;42.40;;;;;;;39.90;36.77;101089.50;5046695;28;20447;-81
2023/01/13 10:09:30;;;;;;;84.80;40.70;;;;;;;39.66;37.24;101092.59;5047100;28;20974;-80
2023/01/13 10:14:54;;;;;;;71.83;40.60;;;;;;;40.05;36.55;101082.88;5031522;28;20465;-77
2023/01/13 10:17:27;;;;;;;77.50;42.23;;;;;;;40.24;36.40;101079.88;5030085;28;20470;-78
2023/01/13 10:20:18;;;;;;;84.30;41.33;;;;;;;40.17;36.75;101074.09;5047148;28;20430;-84
2023/01/13 10:22:57;;;;;;;72.43;40.43;;;;;;;40.60;35.72;101073.38;5038615;28;20463;-82
2023/01/13 10:25:41;;;;;;;66.60;39.37;;;;;;;40.73;34.61;101077.84;5031951;28;20806;-77
2023/01/13 10:28:12;;;;;;;83.17;43.67;;;;;;;40.74;34.76;101068.56;5018462;28;20423;-79
2023/01/13 10:30:42;;;;;;;75.80;42.07;;;;;;;40.84;35.04;101062.00;5014129;28;20431;-79
2023/01/13 10:33:19;;;;;;;88.73;41.33;;;;;;;40.77;34.84;101060.56;5022167;28;20905;-76
2023/01/13 10:36:02;;;;;;;77.67;43.17;;;;;;;40.92;34.91;101053.06;5021720;28;20432;-80
2023/01/13 10:38:40;;;;;;;64.57;42.53;;;;;;;40.97;34.58;101050.97;5010157;28;20948;-75
2023/01/13 10:41:26;;;;;;;82.67;42.60;;;;;;;41.11;34.80;101048.06;5017597;28;20802;-81
2023/01/13 10:44:03;;;;;;;72.93;42.53;;;;;;;41.13;35.18;101048.56;5024859;28;20424;-78
2023/01/13 10:46:32;;;;;;;69.17;42.00;;;;;;;40.99;34.43;101037.03;5027717;28;20448;-82
2023/01/13 10:49:01;;;;;;;79.30;37.90;;;;;;;40.94;34.08;101045.38;5013808;28;20424;-80
2023/01/13 10:51:38;;;;;;;73.67;40.27;;;;;;;41.00;33.96;101027.75;5022675;28;20435;-80
2023/01/13 10:54:11;;;;;;;76.03;39.10;;;;;;;41.26;33.52;101033.13;5022906;28;20424;-77
2023/01/13 10:56:39;;;;;;;64.67;41.10;;;;;;;41.30;34.08;101023.19;5028139;28;20416;-78
2023/01/13 10:59:17;;;;;;;81.10;43.60;;;;;;;41.17;34.28;101016.03;5021497;28;20423;-80
2023/01/13 11:02:16;;;;;;;72.50;42.20;;;;;;;41.34;34.45;101021.44;5013224;28;21030;-80
2023/01/13 11:05:17;;;;;;;62.10;41.37;;;;;;;41.53;33.67;101018.31;5013476;28;20785;-81
2023/01/13 11:07:53;;;;;;;92.53;43.93;;;;;;;41.63;33.43;101019.88;5029844;28;20511;-80
2023/01/13 11:10:19;;;;;;;76.60;41.80;;;;;;;41.85;33.44;101017.69;5013517;28;20428;-80
2023/01/13 11:12:48;;;;;;;92.17;45.70;;;;;;;41.69;32.77;101013.91;5030041;28;20416;-81
2023/01/13 11:15:19;;;;;;;65.93;41.30;;;;;;;41.54;32.64;100993.47;5029842;28;20441;-81
2023/01/13 11:17:59;;;;;;;77.47;40.03;;;;;;;41.57;32.73;101000.22;5013564;28;21035;-80
2023/01/13 11:20:46;;;;;;;93.20;39.17;;;;;;;41.28;33.32;100984.59;5042412;28;20427;-76
2023/01/13 11:23:30;;;;;;;68.77;38.67;;;;;;;41.23;33.63;100982.84;5020608;28;20459;-79
2023/01/13 11:26:03;;;;;;;96.87;43.03;;;;;;;41.68;33.23;100981.53;5015093;28;20417;-80
2023/01/13 11:29:01;;;;;;;87.73;40.77;;;;;;;41.51;32.80;100977.81;5015701;28;20416;-80
2023/01/13 11:31:40;;;;;;;83.67;42.93;;;;;;;41.65;33.79;100976.78;5037041;28;20425;-82
2023/01/13 11:34:11;;;;;;;62.00;38.87;;;;;;;41.92;32.43;100972.75;5032603;28;20466;-81
2023/01/13 11:36:46;;;;;;;77.57;41.20;;;;;;;42.08;32.41;100966.41;5018499;28;20441;-82
2023/01/13 11:39:52;;;;;;;58.30;34.37;;;;;;;42.19;32.27;100966.81;5023098;28;20947;-80
2023/01/13 11:42:34;;;;;;;80.50;38.97;;;;;;;42.30;32.02;100965.28;4994109;28;20874;-75
2023/01/13 11:45:18;;;;;;;73.20;39.25;;;;;;;42.30;31.96;100959.84;5032181;28;20419;-78
2023/01/13 11:47:50;;;;;;;73.77;37.87;;;;;;;42.29;31.92;100952.78;5034437;28;20536;-78
2023/01/13 11:50:33;;;;;;;63.87;39.20;;;;;;;42.44;31.98;100942.38;5021175;28;20844;-79
2023/01/13 11:53:32;;;;;;;72.47;41.17;;;;;;;42.51;32.30;100939.91;5015679;28;20882;-76
2023/01/13 11:56:23;;;;;;;52.77;39.90;;;;;;;42.56;32.16;100931.53;5020431;28;20504;-81
2023/01/13 11:59:19;;;;;;;65.93;40.00;;;;;;;42.57;32.33;100925.75;5024192;28;20520;-81
2023/01/13 12:01:51;;;;;;;79.87;39.63;;;;;;;42.62;32.41;100920.09;5030837;28;21067;-76
2023/01/13 12:04:38;;;;;;;64.90;35.93;;;;;;;42.58;32.46;100910.19;5035545;28;20432;-76
2023/01/13 12:07:20;;;;;;;76.03;40.37;;;;;;;42.46;32.55;100913.63;5022007;28;20589;-77